Time;durP1;ratioP1;P1;durP2;ratioP2;P2;SDS_P1;SDS_P2;PMS_P1;PMS_P2;Temp;Humidity;BMP_temperature;BMP_pressure;BME280_temperature;BME280_humidity;BME280_pressure;Samples;Min_cycle;Max_cycle;Signal;HPM_P1;HPM_P2
2022/01/18 00:01:41;;;;;;;0.70;0.70;;;4.30;83.90;;;;;;5068475;28;20208;-70
2022/01/18 00:04:08;;;;;;;0.77;0.73;;;4.30;84.90;;;;;;5069870;28;20703;-70
2022/01/18 00:06:38;;;;;;;0.60;0.53;;;4.30;84.30;;;;;;5071547;28;20239;-71
2022/01/18 00:09:05;;;;;;;2.30;0.60;;;4.30;84.50;;;;;;5070652;28;20212;-70
2022/01/18 00:11:42;;;;;;;0.70;0.60;;;4.30;84.70;;;;;;5052863;28;20243;-71
2022/01/18 00:14:23;;;;;;;0.77;0.70;;;4.30;85.10;;;;;;5070824;28;20215;-70
2022/01/18 00:17:02;;;;;;;1.67;0.73;;;4.30;85.40;;;;;;5070101;28;20203;-71
2022/01/18 00:19:29;;;;;;;2.57;1.00;;;4.30;85.70;;;;;;5070761;28;20207;-70
2022/01/18 00:22:09;;;;;;;0.70;0.70;;;4.30;86.00;;;;;;5070019;28;20503;-71
2022/01/18 00:24:39;;;;;;;1.43;0.80;;;4.30;86.10;;;;;;5052445;28;20205;-70
2022/01/18 00:27:09;;;;;;;1.30;0.67;;;4.30;86.30;;;;;;5061329;28;20232;-72
2022/01/18 00:29:40;;;;;;;1.87;0.60;;;4.20;86.50;;;;;;5051583;28;20292;-72
2022/01/18 00:32:16;;;;;;;1.63;0.70;;;4.30;86.70;;;;;;5051724;28;20220;-71
2022/01/18 00:34:46;;;;;;;1.60;0.60;;;4.30;86.90;;;;;;5052479;28;20208;-71
2022/01/18 00:37:26;;;;;;;0.67;0.63;;;4.20;87.20;;;;;;5052775;28;20374;-71
2022/01/18 00:39:53;;;;;;;2.10;0.50;;;4.30;87.50;;;;;;5052141;28;20204;-71
2022/01/18 00:42:22;;;;;;;2.30;1.03;;;4.30;88.00;;;;;;5070711;28;20197;-71
2022/01/18 00:44:49;;;;;;;2.63;1.03;;;4.30;88.70;;;;;;5052251;28;20280;-71
2022/01/18 00:47:16;;;;;;;0.57;0.50;;;4.20;89.10;;;;;;5051743;28;20201;-71
2022/01/18 00:49:46;;;;;;;1.73;1.00;;;4.20;89.30;;;;;;5069804;28;20315;-71
2022/01/18 00:52:16;;;;;;;1.80;0.70;;;4.20;89.80;;;;;;5070034;28;20304;-71
2022/01/18 00:54:45;;;;;;;0.73;0.47;;;4.20;89.90;;;;;;5070790;28;20193;-71
2022/01/18 00:57:13;;;;;;;1.00;0.67;;;4.20;90.00;;;;;;5070562;28;20197;-71
2022/01/18 00:59:42;;;;;;;0.63;0.63;;;4.20;90.00;;;;;;5070404;28;20193;-72
2022/01/18 01:02:10;;;;;;;1.47;0.70;;;4.20;90.10;;;;;;5069425;28;20674;-72
2022/01/18 01:04:41;;;;;;;1.13;0.67;;;4.20;90.20;;;;;;5069133;28;20252;-71
2022/01/18 01:07:09;;;;;;;0.50;0.50;;;4.10;90.30;;;;;;5070566;28;20300;-71
2022/01/18 01:09:37;;;;;;;1.47;0.70;;;4.20;90.40;;;;;;5070106;28;20220;-70
2022/01/18 01:12:06;;;;;;;3.37;0.80;;;4.20;90.50;;;;;;5051781;28;20237;-71
2022/01/18 01:14:34;;;;;;;4.53;1.40;;;4.20;90.90;;;;;;5052345;28;20251;-71
2022/01/18 01:17:16;;;;;;;4.50;1.40;;;4.10;90.90;;;;;;5065270;28;20197;-72
2022/01/18 01:31:59;;;;;;;2.50;1.30;;;4.10;91.10;;;;;;5051380;28;20231;-70
2022/01/18 01:34:09;;;;;;;1.57;0.77;;;4.10;91.60;;;;;;5050798;28;20200;-71
2022/01/18 01:36:50;;;;;;;0.57;0.50;;;4.10;91.70;;;;;;5050204;28;20205;-70
2022/01/18 01:42:06;;;;;;;1.47;0.70;;;4.10;92.20;;;;;;5069642;28;20185;-71
2022/01/18 01:44:46;;;;;;;0.97;0.80;;;4.10;92.10;;;;;;5073651;28;20598;-71
2022/01/18 01:47:18;;;;;;;1.10;0.60;;;4.10;92.20;;;;;;5072991;28;20556;-70
2022/01/18 01:49:49;;;;;;;2.43;0.90;;;4.20;92.30;;;;;;5055115;28;20209;-71
2022/01/18 01:52:16;;;;;;;1.43;0.70;;;4.10;92.70;;;;;;5054926;28;20278;-71
2022/01/18 01:54:43;;;;;;;1.40;0.87;;;4.10;92.60;;;;;;5055357;28;20258;-70
2022/01/18 01:57:10;;;;;;;2.23;0.90;;;4.10;92.70;;;;;;5073128;28;20255;-72
2022/01/18 01:59:40;;;;;;;3.90;1.37;;;4.10;93.10;;;;;;5073101;28;20197;-71
2022/01/18 02:02:07;;;;;;;2.47;0.93;;;4.10;92.90;;;;;;5072274;28;21043;-71
2022/01/18 02:04:34;;;;;;;2.00;0.90;;;4.10;93.10;;;;;;5050266;28;20243;-71
2022/01/18 02:07:03;;;;;;;2.30;1.00;;;4.10;93.10;;;;;;5067118;28;20235;-71
2022/01/18 02:09:30;;;;;;;0.60;0.60;;;4.00;93.10;;;;;;5071459;28;20192;-71
2022/01/18 02:12:00;;;;;;;0.80;0.60;;;4.10;93.20;;;;;;5054646;28;20225;-71
2022/01/18 02:14:31;;;;;;;0.77;0.63;;;4.10;93.30;;;;;;5071712;28;20199;-71
2022/01/18 02:22:29;;;;;;;3.17;0.80;;;4.00;93.50;;;;;;5072963;28;20192;-71
2022/01/18 02:24:56;;;;;;;0.90;0.67;;;4.00;93.60;;;;;;5054983;28;20197;-70
2022/01/18 02:27:23;;;;;;;1.60;0.70;;;4.00;93.70;;;;;;5063508;28;20255;-71
2022/01/18 02:29:53;;;;;;;0.90;0.63;;;4.00;93.80;;;;;;5072679;28;20208;-71
2022/01/18 02:32:20;;;;;;;0.50;0.50;;;4.00;93.80;;;;;;5072797;28;20209;-70
2022/01/18 02:34:47;;;;;;;2.10;0.60;;;4.00;93.80;;;;;;5072282;28;20258;-70
2022/01/18 02:37:14;;;;;;;0.80;0.47;;;4.00;93.90;;;;;;5054282;28;20205;-71
2022/01/18 02:39:43;;;;;;;0.60;0.60;;;4.00;94.00;;;;;;5072855;28;20224;-72
2022/01/18 02:42:14;;;;;;;0.30;0.30;;;4.00;94.10;;;;;;5072336;28;20547;-71
2022/01/18 02:44:42;;;;;;;0.67;0.60;;;4.00;94.20;;;;;;5054793;28;20201;-71
2022/01/18 02:47:10;;;;;;;1.77;0.70;;;4.00;94.30;;;;;;5053380;28;20263;-71
2022/01/18 02:49:37;;;;;;;1.27;0.50;;;4.00;94.40;;;;;;5053644;28;20300;-71
2022/01/18 02:52:05;;;;;;;0.50;0.50;;;4.00;94.40;;;;;;5052984;28;20235;-72
2022/01/18 02:54:32;;;;;;;0.50;0.50;;;4.00;94.50;;;;;;5072674;28;20694;-71
2022/01/18 02:57:04;;;;;;;0.60;0.60;;;4.00;94.50;;;;;;5071738;28;20317;-71
2022/01/18 02:59:36;;;;;;;1.43;0.50;;;4.10;94.70;;;;;;5054585;28;20607;-70
2022/01/18 03:05:02;;;;;;;0.73;0.73;;;4.00;94.90;;;;;;5071584;28;20661;-71
2022/01/18 03:07:29;;;;;;;1.63;0.70;;;4.00;95.00;;;;;;5072270;28;20197;-70
2022/01/18 03:09:56;;;;;;;1.43;0.83;;;4.00;95.20;;;;;;5072374;28;20255;-71
2022/01/18 03:12:25;;;;;;;0.93;0.60;;;4.00;95.20;;;;;;5071858;28;20753;-70
2022/01/18 03:14:52;;;;;;;1.73;0.70;;;4.00;95.30;;;;;;5053840;28;20201;-71
2022/01/18 03:17:19;;;;;;;0.57;0.40;;;4.00;95.40;;;;;;5071028;28;20723;-71
2022/01/18 03:19:46;;;;;;;0.73;0.60;;;4.00;95.40;;;;;;5060289;28;20235;-71
2022/01/18 03:22:13;;;;;;;1.67;0.70;;;4.00;95.60;;;;;;5053591;28;20663;-71
2022/01/18 03:24:47;;;;;;;0.73;0.60;;;4.00;95.70;;;;;;5072048;28;20307;-71
2022/01/18 03:30:03;;;;;;;2.23;0.70;;;4.00;95.70;;;;;;5072045;28;20189;-71
2022/01/18 03:32:30;;;;;;;0.93;0.50;;;4.00;95.80;;;;;;5052600;28;20584;-70
2022/01/18 03:34:57;;;;;;;1.40;0.60;;;4.00;95.90;;;;;;5071561;28;20203;-70
2022/01/18 03:37:25;;;;;;;1.73;0.53;;;4.00;95.90;;;;;;5053498;28;20288;-70
2022/01/18 03:39:52;;;;;;;0.47;0.30;;;4.00;96.00;;;;;;5054110;28;20326;-70
2022/01/18 03:45:14;;;;;;;0.40;0.40;;;4.00;96.10;;;;;;5043057;28;20209;-70
2022/01/18 03:47:42;;;;;;;1.50;0.60;;;4.00;96.10;;;;;;5065114;28;20236;-71
2022/01/18 03:50:11;;;;;;;0.60;0.60;;;4.00;96.20;;;;;;5052122;28;20208;-71
2022/01/18 03:52:39;;;;;;;1.70;0.67;;;3.90;96.30;;;;;;5071304;28;20236;-71
2022/01/18 03:55:08;;;;;;;1.60;0.60;;;4.00;96.40;;;;;;5071893;28;20243;-70
2022/01/18 03:57:35;;;;;;;1.23;0.70;;;4.00;96.50;;;;;;5052652;28;20220;-71
2022/01/18 04:00:03;;;;;;;6.40;0.90;;;4.00;96.50;;;;;;5053569;28;20254;-70
2022/01/18 04:02:40;;;;;;;0.60;0.60;;;4.00;96.50;;;;;;5069470;28;20213;-70
2022/01/18 04:05:08;;;;;;;0.97;0.50;;;4.00;96.60;;;;;;5053114;28;20615;-70
2022/01/18 04:07:35;;;;;;;0.50;0.50;;;4.00;96.60;;;;;;5053168;28;20231;-71
2022/01/18 04:10:03;;;;;;;0.40;0.40;;;4.00;96.60;;;;;;5071289;28;20193;-71
2022/01/18 04:12:30;;;;;;;1.10;0.63;;;4.00;96.70;;;;;;5070033;28;20212;-71
2022/01/18 04:15:00;;;;;;;0.30;0.30;;;4.00;96.70;;;;;;5071692;28;20627;-71
2022/01/18 04:17:46;;;;;;;0.60;0.30;;;4.00;96.70;;;;;;5069370;28;20204;-71
2022/01/18 04:28:37;;;;;;;0.80;0.47;;;4.00;96.90;;;;;;5070004;28;20629;-71
2022/01/18 04:31:06;;;;;;;0.20;0.20;;;4.00;96.90;;;;;;5070497;28;20652;-72
2022/01/18 04:33:34;;;;;;;0.67;0.47;;;4.00;97.00;;;;;;5051295;28;20320;-71
2022/01/18 04:36:03;;;;;;;0.40;0.40;;;4.00;97.00;;;;;;5070403;28;20272;-71
2022/01/18 04:38:30;;;;;;;0.30;0.30;;;3.90;97.00;;;;;;5070548;28;20764;-71
2022/01/18 04:41:03;;;;;;;1.47;0.43;;;4.00;97.10;;;;;;5071107;28;20295;-71
2022/01/18 04:43:44;;;;;;;0.30;0.30;;;3.90;97.10;;;;;;5070503;28;20185;-71
2022/01/18 04:48:56;;;;;;;0.40;0.40;;;3.90;97.20;;;;;;5069753;28;20509;-71
2022/01/18 04:51:24;;;;;;;1.50;0.40;;;4.00;97.20;;;;;;5051469;28;20296;-71
2022/01/18 04:53:55;;;;;;;0.63;0.40;;;4.00;97.30;;;;;;5053229;28;20288;-71
2022/01/18 04:56:29;;;;;;;0.40;0.40;;;4.00;97.30;;;;;;5051936;28;20244;-71
2022/01/18 04:58:56;;;;;;;0.30;0.30;;;4.00;97.30;;;;;;5052797;28;20204;-71
2022/01/18 05:01:23;;;;;;;2.30;0.47;;;4.00;97.30;;;;;;5069869;28;20188;-70
2022/01/18 05:03:50;;;;;;;0.30;0.30;;;4.00;97.40;;;;;;5068726;28;20765;-71
2022/01/18 05:06:19;;;;;;;0.40;0.30;;;4.00;97.40;;;;;;5052228;28;20197;-70
2022/01/18 05:08:47;;;;;;;0.20;0.20;;;4.00;97.40;;;;;;5070229;28;20189;-70
2022/01/18 05:11:18;;;;;;;0.20;0.20;;;4.00;97.40;;;;;;5052495;28;20722;-72
2022/01/18 05:14:16;;;;;;;0.23;0.23;;;4.00;97.40;;;;;;5070320;28;20204;-70
2022/01/18 05:16:51;;;;;;;0.40;0.40;;;4.00;97.50;;;;;;5060273;28;20202;-71
2022/01/18 05:19:25;;;;;;;0.50;0.50;;;4.00;97.40;;;;;;5053761;28;20270;-71
2022/01/18 05:24:38;;;;;;;0.40;0.40;;;4.00;97.50;;;;;;5074027;28;20553;-72
2022/01/18 05:27:06;;;;;;;1.50;0.40;;;3.90;97.50;;;;;;5055411;28;20196;-71
2022/01/18 05:29:33;;;;;;;0.50;0.50;;;3.90;97.60;;;;;;5074281;28;20193;-71
2022/01/18 05:32:00;;;;;;;0.40;0.40;;;3.90;97.60;;;;;;5073057;28;20702;-71
2022/01/18 05:34:27;;;;;;;0.50;0.40;;;3.90;97.70;;;;;;5055895;28;20204;-72
2022/01/18 05:36:54;;;;;;;0.40;0.40;;;4.00;97.80;;;;;;5074088;28;20692;-70
2022/01/18 05:39:21;;;;;;;1.07;0.40;;;4.00;97.80;;;;;;5055873;28;20204;-71
2022/01/18 05:41:50;;;;;;;0.30;0.30;;;4.00;97.80;;;;;;5073657;28;20295;-71
2022/01/18 05:44:17;;;;;;;0.40;0.40;;;4.10;97.80;;;;;;5073947;28;20246;-71
2022/01/18 05:46:44;;;;;;;0.60;0.50;;;4.10;97.80;;;;;;5073538;28;20197;-71
2022/01/18 05:49:11;;;;;;;0.40;0.40;;;4.10;97.80;;;;;;5065999;28;20189;-72
2022/01/18 05:51:41;;;;;;;2.97;0.80;;;4.10;97.80;;;;;;5054990;28;20229;-72
2022/01/18 05:54:09;;;;;;;0.70;0.70;;;4.10;97.90;;;;;;5073525;28;20534;-71
2022/01/18 05:56:36;;;;;;;1.60;0.63;;;4.20;97.90;;;;;;5072990;28;20193;-71
2022/01/18 05:59:06;;;;;;;0.50;0.50;;;4.20;97.90;;;;;;5073469;28;20556;-71
2022/01/18 06:01:37;;;;;;;0.80;0.57;;;4.20;97.90;;;;;;5073433;28;20641;-72
2022/01/18 06:04:15;;;;;;;0.47;0.47;;;4.20;98.00;;;;;;5072183;28;20810;-72
2022/01/18 06:06:51;;;;;;;0.57;0.50;;;4.10;98.00;;;;;;5061445;28;20193;-71
2022/01/18 06:09:19;;;;;;;0.57;0.57;;;4.20;98.00;;;;;;5055400;28;20767;-71
2022/01/18 06:11:47;;;;;;;0.40;0.40;;;4.30;98.00;;;;;;5055121;28;20201;-71
2022/01/18 06:14:16;;;;;;;0.70;0.60;;;4.30;98.10;;;;;;5072880;28;20300;-71
2022/01/18 06:16:43;;;;;;;2.73;0.83;;;4.30;98.10;;;;;;5073649;28;20216;-71
2022/01/18 06:19:10;;;;;;;0.90;0.70;;;4.30;98.20;;;;;;5071945;28;20217;-70
2022/01/18 06:21:37;;;;;;;0.80;0.50;;;4.40;98.20;;;;;;5073027;28;20197;-71
2022/01/18 06:24:07;;;;;;;1.43;0.50;;;4.40;98.20;;;;;;5072350;28;20224;-71
2022/01/18 06:26:34;;;;;;;2.37;0.80;;;4.40;98.20;;;;;;5053638;28;20328;-72
2022/01/18 06:29:02;;;;;;;1.63;0.60;;;4.40;98.20;;;;;;5072752;28;20537;-71
2022/01/18 06:31:31;;;;;;;1.80;0.80;;;4.50;98.20;;;;;;5072849;28;20574;-71
2022/01/18 06:33:58;;;;;;;1.17;0.93;;;4.50;98.20;;;;;;5071889;28;20209;-72
2022/01/18 06:36:25;;;;;;;3.73;1.00;;;4.60;98.20;;;;;;5072952;28;20660;-71
2022/01/18 06:38:52;;;;;;;1.07;0.70;;;4.60;98.20;;;;;;5072094;28;20657;-71
2022/01/18 06:41:19;;;;;;;0.67;0.50;;;4.60;98.20;;;;;;5072718;28;20221;-70
2022/01/18 06:43:46;;;;;;;0.50;0.50;;;4.60;98.20;;;;;;5072531;28;20537;-71
2022/01/18 06:46:13;;;;;;;0.50;0.50;;;4.60;98.20;;;;;;5054660;28;20224;-70
2022/01/18 06:48:44;;;;;;;0.67;0.60;;;4.60;98.20;;;;;;5072076;28;20200;-71
2022/01/18 06:51:11;;;;;;;0.43;0.43;;;4.60;98.20;;;;;;5054247;28;20631;-71
2022/01/18 06:53:44;;;;;;;2.43;1.00;;;4.60;98.20;;;;;;5053991;28;20359;-71
2022/01/18 06:56:13;;;;;;;2.90;1.10;;;4.60;98.30;;;;;;5073358;28;20718;-70
2022/01/18 06:58:40;;;;;;;1.67;0.90;;;4.60;98.40;;;;;;5072030;28;20243;-70
2022/01/18 07:01:09;;;;;;;0.87;0.87;;;4.60;98.40;;;;;;5054337;28;20197;-71
2022/01/18 07:03:37;;;;;;;0.67;0.57;;;4.60;98.40;;;;;;5052940;28;20237;-71
2022/01/18 07:06:06;;;;;;;0.57;0.57;;;4.50;98.40;;;;;;5041142;28;20205;-71
2022/01/18 07:08:34;;;;;;;1.23;0.60;;;4.50;98.50;;;;;;5072093;28;20276;-71
2022/01/18 07:11:02;;;;;;;1.90;1.00;;;4.50;98.50;;;;;;5072377;28;20204;-71
2022/01/18 07:13:30;;;;;;;1.07;0.80;;;4.60;98.60;;;;;;5053326;28;20229;-71
2022/01/18 07:15:57;;;;;;;1.47;0.80;;;4.60;98.60;;;;;;5068473;28;20189;-71
2022/01/18 07:18:24;;;;;;;1.00;0.60;;;4.60;98.60;;;;;;5052784;28;20208;-71
2022/01/18 07:20:51;;;;;;;1.13;0.60;;;4.50;98.60;;;;;;5069186;28;20235;-71
2022/01/18 07:23:19;;;;;;;0.90;0.70;;;4.50;98.60;;;;;;5053969;28;20193;-71
2022/01/18 07:25:48;;;;;;;1.07;0.70;;;4.50;98.60;;;;;;5053777;28;20193;-71
2022/01/18 07:28:17;;;;;;;2.00;0.90;;;4.50;98.70;;;;;;5053388;28;20205;-71
2022/01/18 07:30:45;;;;;;;2.80;0.90;;;4.50;98.70;;;;;;5072044;28;20276;-71
2022/01/18 07:33:13;;;;;;;1.60;1.33;;;4.50;98.80;;;;;;5070012;28;20374;-71
2022/01/18 07:35:41;;;;;;;1.30;1.00;;;4.40;98.80;;;;;;5071187;28;20216;-71
2022/01/18 07:38:12;;;;;;;0.87;0.87;;;4.50;98.90;;;;;;5053147;28;20262;-70
2022/01/18 07:40:42;;;;;;;0.93;0.70;;;4.40;98.90;;;;;;5069545;28;20239;-70
2022/01/18 07:43:10;;;;;;;0.97;0.70;;;4.50;98.90;;;;;;5071111;28;20220;-70
2022/01/18 07:45:37;;;;;;;0.90;0.80;;;4.50;98.90;;;;;;5071549;28;20275;-70
2022/01/18 07:48:05;;;;;;;0.50;0.50;;;4.50;99.00;;;;;;5069764;28;20302;-71
2022/01/18 07:50:32;;;;;;;0.50;0.50;;;4.50;99.00;;;;;;5053664;28;20576;-71
2022/01/18 07:52:59;;;;;;;0.80;0.80;;;4.40;99.00;;;;;;5052615;28;20236;-70
2022/01/18 07:55:26;;;;;;;0.53;0.53;;;4.40;99.10;;;;;;5071343;28;20251;-72
2022/01/18 07:57:57;;;;;;;2.23;0.80;;;4.50;99.10;;;;;;5075526;28;20254;-71
2022/01/18 08:00:25;;;;;;;2.43;1.37;;;4.50;99.10;;;;;;5071251;28;20685;-71
2022/01/18 08:02:52;;;;;;;1.60;1.03;;;4.60;99.20;;;;;;5048121;28;20257;-70
2022/01/18 08:05:19;;;;;;;1.53;1.10;;;4.60;99.10;;;;;;5048589;28;20749;-71
2022/01/18 08:07:46;;;;;;;1.17;1.00;;;4.60;99.10;;;;;;5049816;28;20225;-70
2022/01/18 08:10:16;;;;;;;0.90;0.90;;;4.60;99.10;;;;;;5051383;28;20255;-72
2022/01/18 08:12:43;;;;;;;1.20;0.73;;;4.70;99.10;;;;;;5049482;28;20205;-71
2022/01/18 08:15:15;;;;;;;3.00;1.47;;;4.80;99.10;;;;;;5051499;28;20189;-70
2022/01/18 08:17:44;;;;;;;2.83;1.60;;;4.80;99.10;;;;;;5049541;28;20269;-71
2022/01/18 08:20:13;;;;;;;8.00;2.30;;;4.80;99.00;;;;;;5051332;28;20538;-70
2022/01/18 08:22:42;;;;;;;8.63;2.67;;;4.90;99.00;;;;;;5049327;28;20583;-70
2022/01/18 08:25:10;;;;;;;6.97;2.40;;;4.90;99.00;;;;;;5050898;28;20568;-72
2022/01/18 08:27:37;;;;;;;4.93;2.33;;;4.80;98.90;;;;;;5047687;28;20243;-70
2022/01/18 08:30:07;;;;;;;4.70;2.20;;;4.90;99.00;;;;;;5051599;28;20651;-70
2022/01/18 08:32:36;;;;;;;6.63;2.20;;;4.90;99.00;;;;;;5048289;28;20641;-71
2022/01/18 08:35:04;;;;;;;4.20;1.87;;;4.90;98.90;;;;;;5050836;28;20193;-71
2022/01/18 08:37:32;;;;;;;2.93;1.27;;;4.90;98.90;;;;;;5050759;28;20194;-70
2022/01/18 08:39:59;;;;;;;6.67;1.53;;;4.90;98.90;;;;;;5050973;28;20259;-69
2022/01/18 08:42:26;;;;;;;3.37;2.17;;;4.90;98.90;;;;;;5050208;28;20212;-70
2022/01/18 08:44:53;;;;;;;3.10;1.80;;;5.00;99.10;;;;;;5050657;28;20194;-71
2022/01/18 08:47:20;;;;;;;6.30;2.33;;;5.00;98.80;;;;;;5049411;28;20221;-71
2022/01/18 08:49:50;;;;;;;4.73;2.30;;;5.10;98.90;;;;;;5049404;28;20204;-72
2022/01/18 08:52:18;;;;;;;4.43;1.90;;;5.10;98.80;;;;;;5049864;28;20280;-72
2022/01/18 08:55:05;;;;;;;4.70;2.03;;;5.20;98.80;;;;;;5047385;28;20205;-72
2022/01/18 08:57:35;;;;;;;6.17;2.07;;;5.20;98.80;;;;;;5058642;28;20201;-71
2022/01/18 09:00:02;;;;;;;5.50;2.50;;;5.20;98.70;;;;;;5049889;28;20194;-70
2022/01/18 09:02:29;;;;;;;4.20;1.77;;;5.30;98.70;;;;;;5043031;28;20462;-71
2022/01/18 09:04:57;;;;;;;2.50;1.57;;;5.40;98.60;;;;;;5048359;28;20561;-71
2022/01/18 09:07:25;;;;;;;3.87;1.60;;;5.40;98.50;;;;;;5064354;28;20200;-71
2022/01/18 09:10:02;;;;;;;4.47;1.60;;;5.60;98.60;;;;;;5070222;28;20349;-71
2022/01/18 09:12:29;;;;;;;2.30;1.30;;;5.50;98.50;;;;;;5051471;28;20278;-71
2022/01/18 09:14:56;;;;;;;2.37;1.40;;;5.60;98.50;;;;;;5052547;28;20247;-71
2022/01/18 09:17:24;;;;;;;1.63;1.37;;;5.60;98.50;;;;;;5069251;28;20201;-71
2022/01/18 09:19:51;;;;;;;2.37;1.77;;;5.60;98.50;;;;;;5052440;28;20590;-71
2022/01/18 09:22:19;;;;;;;3.67;1.90;;;5.60;98.40;;;;;;5051495;28;20328;-71
2022/01/18 09:24:46;;;;;;;4.53;1.60;;;5.70;98.40;;;;;;5052072;28;20208;-71
2022/01/18 09:27:15;;;;;;;3.93;1.90;;;5.70;98.40;;;;;;5069916;28;20208;-71
2022/01/18 09:29:42;;;;;;;5.03;2.20;;;5.70;98.30;;;;;;5052358;28;20599;-71
2022/01/18 09:32:09;;;;;;;7.20;2.47;;;5.70;98.30;;;;;;5069439;28;20715;-72
2022/01/18 09:34:36;;;;;;;5.33;2.43;;;5.70;98.20;;;;;;5051506;28;20213;-72
2022/01/18 09:37:04;;;;;;;5.57;2.00;;;5.70;98.20;;;;;;5052337;28;20201;-71
2022/01/18 09:39:32;;;;;;;9.27;2.20;;;5.70;98.20;;;;;;5051634;28;20672;-71
2022/01/18 09:42:03;;;;;;;5.07;2.37;;;5.70;98.20;;;;;;5051322;28;20229;-71
2022/01/18 09:44:30;;;;;;;6.13;2.37;;;5.70;98.20;;;;;;5062123;28;20193;-71
2022/01/18 09:46:58;;;;;;;7.33;2.60;;;5.80;98.50;;;;;;5051590;28;20213;-71
2022/01/18 09:49:25;;;;;;;7.07;2.40;;;5.80;98.10;;;;;;5061951;28;20204;-71
2022/01/18 09:51:52;;;;;;;5.37;2.30;;;5.80;98.10;;;;;;5051593;28;20269;-71
2022/01/18 09:54:19;;;;;;;5.20;2.50;;;5.90;98.10;;;;;;5069818;28;20312;-71
2022/01/18 09:56:48;;;;;;;7.53;2.90;;;6.00;97.90;;;;;;5051404;28;20734;-71
2022/01/18 09:59:15;;;;;;;4.93;2.60;;;6.00;97.80;;;;;;5069272;28;20259;-71
2022/01/18 10:01:42;;;;;;;12.40;3.20;;;6.00;97.70;;;;;;5054075;28;20199;-70
2022/01/18 10:04:18;;;;;;;6.47;2.83;;;6.10;97.70;;;;;;5072150;28;20317;-71
2022/01/18 10:06:46;;;;;;;5.60;2.50;;;6.10;97.60;;;;;;5055633;28;20204;-72
2022/01/18 10:09:15;;;;;;;4.37;2.53;;;6.10;97.60;;;;;;5072449;28;20275;-72
2022/01/18 10:12:02;;;;;;;6.73;2.43;;;6.20;97.50;;;;;;5073311;28;20217;-72
2022/01/18 10:14:30;;;;;;;4.27;2.07;;;6.20;97.50;;;;;;5073181;28;20250;-72
2022/01/18 10:16:57;;;;;;;3.90;1.97;;;6.20;97.30;;;;;;5072704;28;20284;-71
2022/01/18 10:19:31;;;;;;;2.63;1.90;;;6.20;97.40;;;;;;5054021;28;20246;-71
2022/01/18 10:22:10;;;;;;;2.83;1.90;;;6.30;97.40;;;;;;5054639;28;20306;-72
2022/01/18 10:24:37;;;;;;;2.57;1.73;;;6.40;97.40;;;;;;5054823;28;20193;-72
2022/01/18 10:27:06;;;;;;;3.33;1.70;;;6.40;97.30;;;;;;5072318;28;20245;-72
2022/01/18 10:29:36;;;;;;;2.63;1.53;;;6.50;97.30;;;;;;5054699;28;20222;-71
2022/01/18 10:32:13;;;;;;;3.80;1.80;;;6.70;97.20;;;;;;5072089;28;20198;-71
2022/01/18 10:35:04;;;;;;;6.70;1.77;;;6.70;96.90;;;;;;5054082;28;20305;-71
2022/01/18 10:37:31;;;;;;;5.83;2.20;;;6.80;96.90;;;;;;5069268;28;20212;-72
2022/01/18 10:40:00;;;;;;;4.90;2.40;;;6.90;96.60;;;;;;5072842;28;20195;-70
2022/01/18 10:42:35;;;;;;;5.67;2.20;;;6.90;96.60;;;;;;5073045;28;20724;-71
2022/01/18 10:45:06;;;;;;;4.57;1.87;;;7.00;96.50;;;;;;5054638;28;20206;-71
2022/01/18 10:47:34;;;;;;;2.20;1.57;;;7.10;96.30;;;;;;5070842;28;20191;-72
2022/01/18 10:50:09;;;;;;;1.73;1.20;;;7.20;96.70;;;;;;5054559;28;20263;-72
2022/01/18 10:52:36;;;;;;;6.47;2.03;;;7.30;96.40;;;;;;5054087;28;20225;-72
2022/01/18 10:55:04;;;;;;;3.33;1.60;;;7.40;96.00;;;;;;5067853;28;20201;-72
2022/01/18 10:57:36;;;;;;;2.97;1.50;;;7.50;95.90;;;;;;5071921;28;20586;-72
2022/01/18 11:00:07;;;;;;;5.23;1.60;;;7.60;96.00;;;;;;5054363;28;20210;-71
2022/01/18 11:02:35;;;;;;;2.93;1.57;;;7.70;95.70;;;;;;5052594;28;20287;-71
2022/01/18 11:05:13;;;;;;;1.83;1.20;;;7.80;95.60;;;;;;5050988;28;20643;-73
2022/01/18 11:07:40;;;;;;;2.40;1.47;;;7.80;95.50;;;;;;5068221;28;20196;-71
2022/01/18 11:10:09;;;;;;;5.10;1.53;;;7.90;95.40;;;;;;5072588;28;20215;-72
2022/01/18 11:12:54;;;;;;;1.33;1.10;;;7.90;94.90;;;;;;5070821;28;20245;-71
2022/01/18 11:15:23;;;;;;;2.60;1.50;;;7.90;94.90;;;;;;5064527;28;20235;-71
2022/01/18 11:17:58;;;;;;;3.93;1.60;;;7.90;94.50;;;;;;5070553;28;20204;-71
2022/01/18 11:20:28;;;;;;;6.03;1.50;;;7.90;93.90;;;;;;5054249;28;20220;-72
2022/01/18 11:22:55;;;;;;;2.27;1.20;;;7.80;93.50;;;;;;5053219;28;20203;-71
2022/01/18 11:25:23;;;;;;;3.23;1.23;;;7.70;93.50;;;;;;5054178;28;20205;-70
2022/01/18 11:27:54;;;;;;;2.23;1.13;;;7.70;93.50;;;;;;5052636;28;20821;-71
2022/01/18 11:30:24;;;;;;;3.57;1.40;;;7.70;93.40;;;;;;5071773;28;20189;-72
2022/01/18 11:32:52;;;;;;;1.30;1.13;;;7.70;93.50;;;;;;5052497;28;20557;-72
2022/01/18 11:35:25;;;;;;;2.27;1.30;;;7.60;93.00;;;;;;5053451;28;20305;-71
2022/01/18 11:38:09;;;;;;;5.83;1.30;;;7.60;93.00;;;;;;5062439;28;20269;-71
2022/01/18 11:40:47;;;;;;;5.03;1.50;;;7.50;93.00;;;;;;5070679;28;20596;-71
2022/01/18 11:43:33;;;;;;;1.43;1.17;;;7.50;92.90;;;;;;5070630;28;20599;-70
2022/01/18 11:46:00;;;;;;;1.77;1.00;;;7.40;93.10;;;;;;5053552;28;20302;-71
2022/01/18 11:48:27;;;;;;;4.73;1.60;;;7.40;93.20;;;;;;5070106;28;20221;-71
2022/01/18 11:51:05;;;;;;;1.77;1.30;;;7.40;93.20;;;;;;5071165;28;20261;-72
2022/01/18 11:53:43;;;;;;;3.13;1.40;;;7.30;93.10;;;;;;5070969;28;20228;-72
2022/01/18 11:56:14;;;;;;;2.40;1.50;;;7.20;93.20;;;;;;5071228;28;20263;-71
2022/01/18 11:58:44;;;;;;;3.00;1.40;;;7.20;93.30;;;;;;5053369;28;20280;-70
2022/01/18 12:01:12;;;;;;;4.00;1.73;;;7.20;93.40;;;;;;5052191;28;20201;-71
2022/01/18 12:03:49;;;;;;;1.27;1.00;;;7.20;93.40;;;;;;5051659;28;20337;-71
2022/01/18 12:06:16;;;;;;;2.13;1.30;;;7.10;93.40;;;;;;5070807;28;20540;-71
2022/01/18 12:08:47;;;;;;;3.30;1.23;;;7.10;93.50;;;;;;5071293;28;20199;-71
2022/01/18 12:11:36;;;;;;;2.77;1.23;;;7.10;93.60;;;;;;5070873;28;20199;-70
2022/01/18 12:14:05;;;;;;;1.67;1.00;;;7.10;93.60;;;;;;5051077;28;20212;-71
2022/01/18 12:16:35;;;;;;;4.67;1.30;;;7.10;93.60;;;;;;5053234;28;20652;-71
2022/01/18 12:19:06;;;;;;;3.43;1.37;;;7.00;93.50;;;;;;5051616;28;20245;-71
2022/01/18 12:21:35;;;;;;;2.93;1.90;;;7.00;93.50;;;;;;5070593;28;20199;-72
2022/01/18 12:24:17;;;;;;;3.03;1.70;;;7.00;93.50;;;;;;5070672;28;20651;-71
2022/01/18 12:26:47;;;;;;;3.07;1.40;;;7.00;93.20;;;;;;5063614;28;20207;-71
2022/01/18 12:29:24;;;;;;;1.83;1.10;;;6.90;93.20;;;;;;5052000;28;20652;-71
2022/01/18 12:35:00;;;;;;;3.80;1.43;;;6.90;93.30;;;;;;5070654;28;20290;-71
2022/01/18 12:37:47;;;;;;;2.23;1.43;;;6.90;93.30;;;;;;5070379;28;20481;-72
2022/01/18 12:40:27;;;;;;;1.47;1.13;;;6.90;93.30;;;;;;5070605;28;20597;-72
2022/01/18 12:45:55;;;;;;;1.37;0.90;;;6.90;93.30;;;;;;5070742;28;20278;-71
2022/01/18 12:48:23;;;;;;;2.70;1.33;;;6.90;93.30;;;;;;5068994;28;20210;-71
2022/01/18 12:50:56;;;;;;;2.10;1.40;;;6.90;93.20;;;;;;5052523;28;20208;-71
2022/01/18 12:53:25;;;;;;;2.93;1.20;;;6.90;92.90;;;;;;5070270;28;20279;-72
2022/01/18 12:55:55;;;;;;;4.90;1.47;;;6.90;93.00;;;;;;5069116;28;20244;-71
2022/01/18 12:58:25;;;;;;;1.73;1.27;;;6.90;93.00;;;;;;5051323;28;20666;-71
2022/01/18 13:00:56;;;;;;;2.37;1.00;;;6.90;93.10;;;;;;5046087;28;20296;-71
2022/01/18 13:03:25;;;;;;;0.97;0.97;;;6.90;93.20;;;;;;5068488;28;20231;-71
2022/01/18 13:05:55;;;;;;;1.67;1.07;;;6.90;93.30;;;;;;5063037;28;20227;-71
2022/01/18 13:08:29;;;;;;;4.07;1.67;;;6.90;93.20;;;;;;5042458;28;20233;-70
2022/01/18 13:10:56;;;;;;;4.10;1.53;;;6.90;93.00;;;;;;5053156;28;20366;-71
2022/01/18 13:13:31;;;;;;;1.97;1.10;;;6.90;92.90;;;;;;5069793;28;20192;-70
2022/01/18 13:27:14;;;;;;;2.63;1.63;;;6.80;92.60;;;;;;5041044;28;20197;-71
2022/01/18 13:29:43;;;;;;;1.27;1.10;;;6.80;92.80;;;;;;5052350;28;20267;-71
2022/01/18 13:32:16;;;;;;;1.87;1.17;;;6.80;92.90;;;;;;5069489;28;20199;-71
2022/01/18 13:34:45;;;;;;;2.07;1.17;;;6.80;93.00;;;;;;5051548;28;20623;-71
2022/01/18 13:37:14;;;;;;;2.43;1.30;;;6.70;92.80;;;;;;5055375;28;20203;-71
2022/01/18 13:39:46;;;;;;;2.27;1.10;;;6.80;92.90;;;;;;5073894;28;20279;-71
2022/01/18 13:42:16;;;;;;;1.00;0.90;;;6.80;93.00;;;;;;5055508;28;20208;-72
2022/01/18 13:45:07;;;;;;;0.60;0.60;;;6.80;93.00;;;;;;5073398;28;20659;-72
2022/01/18 13:47:41;;;;;;;1.10;1.00;;;6.90;93.00;;;;;;5053805;28;20337;-71
2022/01/18 13:50:27;;;;;;;3.20;1.60;;;6.90;92.90;;;;;;5073905;28;20204;-71
2022/01/18 13:52:59;;;;;;;5.33;1.93;;;6.90;92.50;;;;;;5072250;28;20195;-72
2022/01/18 13:55:26;;;;;;;3.63;1.43;;;6.90;92.20;;;;;;5056058;28;20241;-72
2022/01/18 13:57:56;;;;;;;3.10;1.30;;;6.90;91.80;;;;;;5072771;28;20191;-72
2022/01/18 14:00:24;;;;;;;1.70;1.57;;;6.80;91.70;;;;;;5055342;28;20256;-71
2022/01/18 14:02:53;;;;;;;4.13;1.30;;;6.80;91.80;;;;;;5070820;28;20227;-71
2022/01/18 14:05:21;;;;;;;2.20;1.00;;;6.80;92.00;;;;;;5048465;28;20192;-71
2022/01/18 14:07:48;;;;;;;2.33;1.10;;;6.70;92.00;;;;;;5064054;28;20233;-70
2022/01/18 14:10:16;;;;;;;5.63;1.27;;;6.70;92.10;;;;;;5073478;28;20200;-70
2022/01/18 14:12:43;;;;;;;2.13;1.40;;;6.70;92.10;;;;;;5072976;28;20273;-70